Time;durP1;ratioP1;P1;durP2;ratioP2;P2;SDS_P1;SDS_P2;PMS_P1;PMS_P2;Temp;Humidity;BMP_temperature;BMP_pressure;BME280_temperature;BME280_humidity;BME280_pressure;Samples;Min_cycle;Max_cycle;Signal;HPM_P1;HPM_P2
2023/04/28 00:01:08;;;;;;;50.15;34.88;;;;;;;;;;5107008;28;20994;-69
2023/04/28 00:03:36;;;;;;;110.55;76.03;;;;;;;;;;5105759;28;20024;-69
2023/04/28 00:06:03;;;;;;;58.40;37.80;;;;;;;;;;5104327;28;20043;-69
2023/04/28 00:08:29;;;;;;;51.53;33.85;;;;;;;;;;5107379;28;20019;-71
2023/04/28 00:10:56;;;;;;;49.92;33.60;;;;;;;;;;5110342;28;20016;-67
2023/04/28 00:13:23;;;;;;;42.55;33.97;;;;;;;;;;5106654;28;20096;-67
2023/04/28 00:15:51;;;;;;;50.45;37.10;;;;;;;;;;5105734;28;20953;-69
2023/04/28 00:18:18;;;;;;;54.42;36.20;;;;;;;;;;5096041;28;20118;-68
2023/04/28 00:20:45;;;;;;;57.35;38.25;;;;;;;;;;5093717;28;20020;-69
2023/04/28 00:23:12;;;;;;;59.28;39.05;;;;;;;;;;5095110;28;20107;-70
2023/04/28 00:25:39;;;;;;;61.58;43.85;;;;;;;;;;5094108;28;20087;-69
2023/04/28 00:28:05;;;;;;;68.93;45.03;;;;;;;;;;5092765;28;20028;-69
2023/04/28 00:30:32;;;;;;;57.47;40.67;;;;;;;;;;5095485;28;20065;-72
2023/04/28 00:32:58;;;;;;;54.75;37.75;;;;;;;;;;5096216;28;20055;-70
2023/04/28 00:35:25;;;;;;;53.20;34.45;;;;;;;;;;5092464;28;20028;-71
2023/04/28 00:37:52;;;;;;;53.30;35.20;;;;;;;;;;5090604;28;20106;-73
2023/04/28 00:40:18;;;;;;;49.30;33.58;;;;;;;;;;5089527;28;20451;-70
2023/04/28 00:42:45;;;;;;;57.20;36.78;;;;;;;;;;5090345;28;20028;-64
2023/04/28 00:45:12;;;;;;;44.45;32.67;;;;;;;;;;5087228;28;20409;-71
2023/04/28 00:47:38;;;;;;;39.35;29.25;;;;;;;;;;5094079;28;20035;-71
2023/04/28 00:50:05;;;;;;;47.60;31.10;;;;;;;;;;5091229;28;20016;-71
2023/04/28 00:52:32;;;;;;;43.20;31.88;;;;;;;;;;5091344;28;20020;-69
2023/04/28 00:54:59;;;;;;;46.38;33.38;;;;;;;;;;5087272;28;20024;-73
2023/04/28 00:57:25;;;;;;;42.63;33.50;;;;;;;;;;5092079;28;20020;-71
2023/04/28 00:59:52;;;;;;;39.38;32.53;;;;;;;;;;5094648;28;20423;-70
2023/04/28 01:02:19;;;;;;;40.72;31.17;;;;;;;;;;5094819;28;20024;-71
2023/04/28 01:04:45;;;;;;;40.90;29.15;;;;;;;;;;5090997;28;20026;-71
2023/04/28 01:07:12;;;;;;;40.13;29.63;;;;;;;;;;5095705;28;20378;-69
2023/04/28 01:09:39;;;;;;;35.55;28.77;;;;;;;;;;5095804;28;20073;-70
2023/04/28 01:12:05;;;;;;;43.83;32.35;;;;;;;;;;5079690;28;20062;-71
2023/04/28 01:14:33;;;;;;;43.25;32.53;;;;;;;;;;5092247;28;20018;-69
2023/04/28 01:17:00;;;;;;;49.97;36.28;;;;;;;;;;5093678;28;20485;-70
2023/04/28 01:19:28;;;;;;;39.25;31.88;;;;;;;;;;5094498;28;20036;-68
2023/04/28 01:21:55;;;;;;;39.10;28.67;;;;;;;;;;5093625;28;20036;-71
2023/04/28 01:24:21;;;;;;;52.13;37.45;;;;;;;;;;5094121;28;20073;-70
2023/04/28 01:26:48;;;;;;;60.55;42.78;;;;;;;;;;5091088;28;20036;-69
2023/04/28 01:29:15;;;;;;;103.25;74.30;;;;;;;;;;5091289;28;20492;-70
2023/04/28 01:31:41;;;;;;;193.90;151.65;;;;;;;;;;5094750;28;20028;-71
2023/04/28 01:34:08;;;;;;;545.47;486.23;;;;;;;;;;5094916;28;20020;-71
2023/04/28 01:36:34;;;;;;;427.83;371.00;;;;;;;;;;5094959;28;20031;-70
2023/04/28 01:39:01;;;;;;;251.32;225.48;;;;;;;;;;5094356;28;20032;-72
2023/04/28 01:41:28;;;;;;;265.15;238.52;;;;;;;;;;5094813;28;20239;-71
2023/04/28 01:43:54;;;;;;;478.67;431.13;;;;;;;;;;5094765;28;20540;-71
2023/04/28 01:46:21;;;;;;;190.63;170.77;;;;;;;;;;5094447;28;20067;-70
2023/04/28 01:48:48;;;;;;;66.00;54.72;;;;;;;;;;5094785;28;20024;-71
2023/04/28 01:51:14;;;;;;;103.03;91.22;;;;;;;;;;5094740;28;20097;-71
2023/04/28 01:53:41;;;;;;;90.32;78.03;;;;;;;;;;5094477;28;20073;-70
2023/04/28 01:56:08;;;;;;;369.70;331.20;;;;;;;;;;5087958;28;20034;-71
2023/04/28 01:58:34;;;;;;;157.13;140.35;;;;;;;;;;5082189;28;20062;-72
2023/04/28 02:01:01;;;;;;;72.80;63.22;;;;;;;;;;5094253;28;20027;-72
2023/04/28 02:03:27;;;;;;;35.92;24.60;;;;;;;;;;5094619;28;20031;-71
2023/04/28 02:05:55;;;;;;;68.55;51.65;;;;;;;;;;5094357;28;20055;-71
2023/04/28 02:08:21;;;;;;;113.53;101.93;;;;;;;;;;5094361;28;20099;-71
2023/04/28 02:10:48;;;;;;;343.25;255.63;;;;;;;;;;5094282;28;20026;-71
2023/04/28 02:13:16;;;;;;;159.60;120.95;;;;;;;;;;5094212;28;20020;-71
2023/04/28 02:15:43;;;;;;;60.72;42.90;;;;;;;;;;5093924;28;20109;-71
2023/04/28 02:18:10;;;;;;;83.10;60.70;;;;;;;;;;5094177;28;20027;-70
2023/04/28 02:20:37;;;;;;;61.45;49.78;;;;;;;;;;5094084;28;20477;-72
2023/04/28 02:23:04;;;;;;;61.97;46.63;;;;;;;;;;5094033;28;20028;-68
2023/04/28 02:25:30;;;;;;;36.70;27.85;;;;;;;;;;5093879;28;20028;-70
2023/04/28 02:27:58;;;;;;;30.30;21.80;;;;;;;;;;5093944;28;20024;-70
2023/04/28 02:30:24;;;;;;;31.05;21.65;;;;;;;;;;5094160;28;20089;-71
2023/04/28 02:32:51;;;;;;;42.90;30.10;;;;;;;;;;5094486;28;20024;-71
2023/04/28 02:35:17;;;;;;;24.23;17.13;;;;;;;;;;5093002;28;20089;-70
2023/04/28 02:37:45;;;;;;;23.65;19.40;;;;;;;;;;5085208;28;20055;-70
2023/04/28 02:40:12;;;;;;;33.63;24.70;;;;;;;;;;5090754;28;20469;-72
2023/04/28 02:42:38;;;;;;;30.45;19.13;;;;;;;;;;5091307;28;20035;-71
2023/04/28 02:45:06;;;;;;;18.90;15.18;;;;;;;;;;5087885;28;20028;-70
2023/04/28 02:47:32;;;;;;;18.70;13.43;;;;;;;;;;5092766;28;20012;-68
2023/04/28 02:49:59;;;;;;;18.85;13.35;;;;;;;;;;5092594;28;20016;-70
2023/04/28 02:52:25;;;;;;;18.48;14.70;;;;;;;;;;5092581;28;20020;-70
2023/04/28 02:54:56;;;;;;;17.08;14.60;;;;;;;;;;5091191;28;20100;-72
2023/04/28 02:57:22;;;;;;;24.25;16.42;;;;;;;;;;5090210;28;20428;-69
2023/04/28 02:59:49;;;;;;;20.95;18.02;;;;;;;;;;5087502;28;20430;-70
2023/04/28 03:02:16;;;;;;;26.10;17.67;;;;;;;;;;5088149;28;20017;-68
2023/04/28 03:04:42;;;;;;;22.50;20.10;;;;;;;;;;5089466;28;20028;-70
2023/04/28 03:07:09;;;;;;;20.80;16.02;;;;;;;;;;5089842;28;20025;-69
2023/04/28 03:09:36;;;;;;;18.40;16.40;;;;;;;;;;5091780;28;20491;-70
2023/04/28 03:12:02;;;;;;;20.00;17.27;;;;;;;;;;5091793;28;20082;-69
2023/04/28 03:14:30;;;;;;;19.90;17.52;;;;;;;;;;5091986;28;20479;-70
2023/04/28 03:16:56;;;;;;;25.55;17.92;;;;;;;;;;5090859;28;20039;-69
2023/04/28 03:19:23;;;;;;;25.35;20.17;;;;;;;;;;5091166;28;20016;-70
2023/04/28 03:21:49;;;;;;;25.48;19.35;;;;;;;;;;5090408;28;20122;-70
2023/04/28 03:24:16;;;;;;;26.58;19.50;;;;;;;;;;5092228;28;20183;-70
2023/04/28 03:26:43;;;;;;;24.77;21.35;;;;;;;;;;5088717;28;20373;-69
2023/04/28 03:29:09;;;;;;;29.80;23.00;;;;;;;;;;5088606;28;20077;-69
2023/04/28 03:31:36;;;;;;;34.70;26.60;;;;;;;;;;5090443;28;20104;-70
2023/04/28 03:34:03;;;;;;;42.83;33.90;;;;;;;;;;5092352;28;20097;-69
2023/04/28 03:36:30;;;;;;;34.28;29.73;;;;;;;;;;5088681;28;20531;-70
2023/04/28 03:38:57;;;;;;;28.23;25.40;;;;;;;;;;5089654;28;20020;-69
2023/04/28 03:41:24;;;;;;;25.17;20.17;;;;;;;;;;5091539;28;20431;-68
2023/04/28 03:43:52;;;;;;;22.40;18.25;;;;;;;;;;5088017;28;20039;-69
2023/04/28 03:46:18;;;;;;;20.00;17.85;;;;;;;;;;5090264;28;20435;-70
2023/04/28 03:48:45;;;;;;;26.52;18.05;;;;;;;;;;5092074;28;20028;-68
2023/04/28 03:51:12;;;;;;;20.60;16.05;;;;;;;;;;5091193;28;20016;-67
2023/04/28 03:53:38;;;;;;;17.00;14.43;;;;;;;;;;5089867;28;20028;-69
2023/04/28 03:56:05;;;;;;;15.43;13.50;;;;;;;;;;5094397;28;20110;-69
2023/04/28 03:58:32;;;;;;;15.32;12.98;;;;;;;;;;5096105;28;20103;-69
2023/04/28 04:00:59;;;;;;;17.90;14.38;;;;;;;;;;5094727;28;20039;-70
2023/04/28 04:03:26;;;;;;;17.98;14.20;;;;;;;;;;5095022;28;20490;-69
2023/04/28 04:05:53;;;;;;;41.05;17.88;;;;;;;;;;5093574;28;20039;-69
2023/04/28 04:08:20;;;;;;;16.75;13.23;;;;;;;;;;5090330;28;20023;-69
2023/04/28 04:10:47;;;;;;;15.85;13.02;;;;;;;;;;5095898;28;20016;-70
2023/04/28 04:13:13;;;;;;;88.45;59.05;;;;;;;;;;5091165;28;20031;-67
2023/04/28 04:15:40;;;;;;;15.00;13.40;;;;;;;;;;5094034;28;20026;-68
2023/04/28 04:18:07;;;;;;;15.60;11.75;;;;;;;;;;5095462;28;20027;-69
2023/04/28 04:20:33;;;;;;;19.10;13.95;;;;;;;;;;5090995;28;20024;-67
2023/04/28 04:23:00;;;;;;;12.90;11.60;;;;;;;;;;5092971;28;20056;-67
2023/04/28 04:25:27;;;;;;;22.92;16.60;;;;;;;;;;5094795;28;20081;-68
2023/04/28 04:27:54;;;;;;;19.02;16.00;;;;;;;;;;5092791;28;20020;-68
2023/04/28 04:30:21;;;;;;;82.75;48.05;;;;;;;;;;5090415;28;20026;-68
2023/04/28 04:32:47;;;;;;;18.25;14.18;;;;;;;;;;5092029;28;20543;-68
2023/04/28 04:35:14;;;;;;;22.23;14.50;;;;;;;;;;5092321;28;20024;-69
2023/04/28 04:37:41;;;;;;;12.85;11.55;;;;;;;;;;5094210;28;20093;-69
2023/04/28 04:40:07;;;;;;;13.80;12.23;;;;;;;;;;5092896;28;20032;-69
2023/04/28 04:42:34;;;;;;;16.52;13.15;;;;;;;;;;5092057;28;20016;-67
2023/04/28 04:45:01;;;;;;;277.05;139.65;;;;;;;;;;5090703;28;20012;-71
2023/04/28 04:47:27;;;;;;;73.30;39.72;;;;;;;;;;5092988;28;20027;-68
2023/04/28 04:49:55;;;;;;;70.93;36.38;;;;;;;;;;5093657;28;20070;-69
2023/04/28 04:52:22;;;;;;;21.40;14.27;;;;;;;;;;5094376;28;20013;-69
2023/04/28 04:54:49;;;;;;;20.75;14.50;;;;;;;;;;5093720;28;20102;-67
2023/04/28 04:57:16;;;;;;;23.20;14.32;;;;;;;;;;5091374;28;20021;-69
2023/04/28 04:59:42;;;;;;;17.70;12.43;;;;;;;;;;5091976;28;20059;-69
2023/04/28 05:02:09;;;;;;;18.77;13.35;;;;;;;;;;5094151;28;20020;-69
2023/04/28 05:04:36;;;;;;;18.95;13.05;;;;;;;;;;5094420;28;20023;-69
2023/04/28 05:07:02;;;;;;;20.40;14.27;;;;;;;;;;5094274;28;20036;-67
2023/04/28 05:09:30;;;;;;;18.17;13.30;;;;;;;;;;5092323;28;20034;-68
2023/04/28 05:11:57;;;;;;;16.30;13.75;;;;;;;;;;5094146;28;20039;-69
2023/04/28 05:14:24;;;;;;;19.35;13.80;;;;;;;;;;5094266;28;20094;-69
2023/04/28 05:16:50;;;;;;;20.67;14.65;;;;;;;;;;5091330;28;20016;-68
2023/04/28 05:19:17;;;;;;;16.50;13.45;;;;;;;;;;5093422;28;20484;-69
2023/04/28 05:21:46;;;;;;;14.80;12.75;;;;;;;;;;5094228;28;20055;-70
2023/04/28 05:24:13;;;;;;;17.13;12.88;;;;;;;;;;5091534;28;20560;-67
2023/04/28 05:26:40;;;;;;;15.70;12.57;;;;;;;;;;5093893;28;20024;-68
2023/04/28 05:29:07;;;;;;;25.33;16.77;;;;;;;;;;5082454;28;20584;-69
2023/04/28 05:31:33;;;;;;;17.67;13.70;;;;;;;;;;5091062;28;20012;-69
2023/04/28 05:34:00;;;;;;;13.20;11.90;;;;;;;;;;5093188;28;20024;-68
2023/04/28 05:36:27;;;;;;;23.45;16.95;;;;;;;;;;5093728;28;20065;-69
2023/04/28 05:38:53;;;;;;;16.33;12.70;;;;;;;;;;5092677;28;20442;-69
2023/04/28 05:41:20;;;;;;;18.80;13.75;;;;;;;;;;5093638;28;20376;-68
2023/04/28 05:43:49;;;;;;;15.98;14.25;;;;;;;;;;5092422;28;20552;-68
2023/04/28 05:46:17;;;;;;;17.23;14.88;;;;;;;;;;5091576;28;20024;-69
2023/04/28 05:48:43;;;;;;;18.98;14.13;;;;;;;;;;5093321;28;20169;-68
2023/04/28 05:51:10;;;;;;;22.15;17.52;;;;;;;;;;5093679;28;20107;-70
2023/04/28 05:53:36;;;;;;;26.95;17.48;;;;;;;;;;5093568;28;20020;-69
2023/04/28 05:56:03;;;;;;;26.38;17.17;;;;;;;;;;5090994;28;20099;-69
2023/04/28 05:58:30;;;;;;;28.33;16.60;;;;;;;;;;5093513;28;20020;-69
2023/04/28 06:00:57;;;;;;;50.72;21.67;;;;;;;;;;5093525;28;20489;-69
2023/04/28 06:03:24;;;;;;;47.78;22.50;;;;;;;;;;5093431;28;20032;-68
2023/04/28 06:05:51;;;;;;;34.47;18.77;;;;;;;;;;5090651;28;20071;-69
2023/04/28 06:08:17;;;;;;;37.80;24.90;;;;;;;;;;5091868;28;20028;-72
2023/04/28 06:10:44;;;;;;;113.63;78.35;;;;;;;;;;5093285;28;20024;-71
2023/04/28 06:13:11;;;;;;;27.52;21.48;;;;;;;;;;5090774;28;20024;-71
2023/04/28 06:15:37;;;;;;;17.92;16.02;;;;;;;;;;5090811;28;20042;-69
2023/04/28 06:18:08;;;;;;;20.63;16.20;;;;;;;;;;5089764;28;20386;-70
2023/04/28 06:20:35;;;;;;;23.20;17.20;;;;;;;;;;5093596;28;20051;-73
2023/04/28 06:23:04;;;;;;;19.95;17.75;;;;;;;;;;5084168;28;20024;-73
2023/04/28 06:25:30;;;;;;;20.70;16.88;;;;;;;;;;5090173;28;20056;-70
2023/04/28 06:27:57;;;;;;;18.17;16.33;;;;;;;;;;5091558;28;20020;-74
2023/04/28 06:30:24;;;;;;;26.33;21.20;;;;;;;;;;5089644;28;20023;-73
2023/04/28 06:32:51;;;;;;;25.55;20.55;;;;;;;;;;5091380;28;20084;-72
2023/04/28 06:35:17;;;;;;;25.30;18.83;;;;;;;;;;5092657;28;20035;-70
2023/04/28 06:37:44;;;;;;;32.97;23.52;;;;;;;;;;5092384;28;20050;-70
2023/04/28 06:40:11;;;;;;;20.75;18.42;;;;;;;;;;5092862;28;20024;-70
2023/04/28 06:42:37;;;;;;;20.65;16.67;;;;;;;;;;5092777;28;20024;-71
2023/04/28 06:45:04;;;;;;;26.23;18.42;;;;;;;;;;5092575;28;20020;-70
2023/04/28 06:47:31;;;;;;;22.70;16.92;;;;;;;;;;5092709;28;20027;-71
2023/04/28 06:49:57;;;;;;;16.73;13.40;;;;;;;;;;5092264;28;20534;-70
2023/04/28 06:52:27;;;;;;;16.85;12.35;;;;;;;;;;5092314;28;20016;-70
2023/04/28 06:54:53;;;;;;;15.98;12.05;;;;;;;;;;5092547;28;20012;-70
2023/04/28 06:57:20;;;;;;;16.08;14.07;;;;;;;;;;5092550;28;20016;-70
2023/04/28 06:59:47;;;;;;;14.80;13.32;;;;;;;;;;5092464;28;20469;-69
2023/04/28 07:02:13;;;;;;;18.17;11.65;;;;;;;;;;5091400;28;20030;-71
2023/04/28 07:04:40;;;;;;;19.10;11.57;;;;;;;;;;5092409;28;20012;-70
2023/04/28 07:07:07;;;;;;;26.73;19.35;;;;;;;;;;5092532;28;20089;-71
2023/04/28 07:09:35;;;;;;;33.42;26.33;;;;;;;;;;5092601;28;20020;-70
2023/04/28 07:12:03;;;;;;;16.90;14.55;;;;;;;;;;5092400;28;20459;-71
2023/04/28 07:14:29;;;;;;;13.80;11.57;;;;;;;;;;5092343;28;20023;-71
2023/04/28 07:16:56;;;;;;;14.60;12.82;;;;;;;;;;5092277;28;20580;-71
2023/04/28 07:19:23;;;;;;;16.05;14.07;;;;;;;;;;5088762;28;20124;-72
2023/04/28 07:21:50;;;;;;;17.38;13.82;;;;;;;;;;5092792;28;20380;-69
2023/04/28 07:24:16;;;;;;;13.95;12.45;;;;;;;;;;5092543;28;20020;-70
2023/04/28 07:26:43;;;;;;;19.58;14.25;;;;;;;;;;5090356;28;20456;-69
2023/04/28 07:29:12;;;;;;;16.33;13.13;;;;;;;;;;5096389;28;20024;-69
2023/04/28 07:31:39;;;;;;;25.08;18.77;;;;;;;;;;5096133;28;20463;-69
2023/04/28 07:34:06;;;;;;;18.20;15.13;;;;;;;;;;5096287;28;20023;-70
2023/04/28 07:36:32;;;;;;;17.83;12.60;;;;;;;;;;5096214;28;20013;-69
2023/04/28 07:39:00;;;;;;;14.05;11.70;;;;;;;;;;5095909;28;20027;-69
2023/04/28 07:41:27;;;;;;;19.25;15.65;;;;;;;;;;5096170;28;20099;-70
2023/04/28 07:43:54;;;;;;;14.90;11.27;;;;;;;;;;5096063;28;20070;-70
2023/04/28 07:46:21;;;;;;;14.82;11.05;;;;;;;;;;5095806;28;20016;-71
2023/04/28 07:48:48;;;;;;;15.20;10.80;;;;;;;;;;5095988;28;20012;-69
2023/04/28 07:51:15;;;;;;;15.77;12.30;;;;;;;;;;5096000;28;20126;-67
2023/04/28 07:53:41;;;;;;;15.45;11.07;;;;;;;;;;5095688;28;20074;-69
2023/04/28 07:56:08;;;;;;;13.10;10.60;;;;;;;;;;5095880;28;20526;-69
2023/04/28 07:58:36;;;;;;;12.65;9.85;;;;;;;;;;5095951;28;20096;-70
2023/04/28 08:01:02;;;;;;;11.55;9.82;;;;;;;;;;5092992;28;20423;-70
2023/04/28 08:03:29;;;;;;;10.70;9.60;;;;;;;;;;5095862;28;20016;-72
2023/04/28 08:05:55;;;;;;;10.85;9.75;;;;;;;;;;5094747;28;20112;-69
2023/04/28 08:08:22;;;;;;;14.25;10.18;;;;;;;;;;5092889;28;20020;-69
2023/04/28 08:10:49;;;;;;;12.05;9.82;;;;;;;;;;5095756;28;20023;-69
2023/04/28 08:13:16;;;;;;;11.73;10.57;;;;;;;;;;5095454;28;20030;-69
2023/04/28 08:15:43;;;;;;;15.45;11.23;;;;;;;;;;5087317;28;20426;-69
2023/04/28 08:18:09;;;;;;;12.93;11.13;;;;;;;;;;5095385;28;20048;-69
2023/04/28 08:20:36;;;;;;;17.15;12.60;;;;;;;;;;5095341;28;20028;-69
2023/04/28 08:23:03;;;;;;;12.43;10.63;;;;;;;;;;5092561;28;20023;-68
2023/04/28 08:25:29;;;;;;;14.00;12.23;;;;;;;;;;5095234;28;20380;-69
2023/04/28 08:27:57;;;;;;;14.60;10.95;;;;;;;;;;5095379;28;20013;-69
2023/04/28 08:30:24;;;;;;;15.52;13.00;;;;;;;;;;5096017;28;20445;-69
2023/04/28 08:32:51;;;;;;;13.73;12.40;;;;;;;;;;5081122;28;20386;-69
2023/04/28 08:35:18;;;;;;;13.77;12.15;;;;;;;;;;5076048;28;20055;-69
2023/04/28 08:37:45;;;;;;;15.10;13.10;;;;;;;;;;5075142;28;20044;-69
2023/04/28 08:40:11;;;;;;;17.00;12.60;;;;;;;;;;5076061;28;20028;-70
2023/04/28 08:42:38;;;;;;;14.65;12.43;;;;;;;;;;5075867;28;20425;-70
2023/04/28 08:45:05;;;;;;;13.88;11.90;;;;;;;;;;5075421;28;20075;-71
2023/04/28 08:47:34;;;;;;;13.70;12.40;;;;;;;;;;5090887;28;20473;-70
2023/04/28 08:50:04;;;;;;;15.70;13.35;;;;;;;;;;5095882;28;20035;-69
2023/04/28 08:52:31;;;;;;;17.48;12.93;;;;;;;;;;5095615;28;20020;-69
2023/04/28 08:55:01;;;;;;;25.55;18.92;;;;;;;;;;5093494;28;20498;-70
2023/04/28 08:57:30;;;;;;;16.60;14.18;;;;;;;;;;5089875;28;20020;-71
2023/04/28 08:59:58;;;;;;;15.73;14.00;;;;;;;;;;5081257;28;20350;-69
2023/04/28 09:02:25;;;;;;;16.50;13.95;;;;;;;;;;5075128;28;20032;-68
2023/04/28 09:04:51;;;;;;;16.83;13.00;;;;;;;;;;5076994;28;20100;-71
2023/04/28 09:07:18;;;;;;;15.05;12.30;;;;;;;;;;5075081;28;20020;-70
2023/04/28 09:09:44;;;;;;;13.35;11.68;;;;;;;;;;5075398;28;20024;-70
2023/04/28 09:12:11;;;;;;;14.40;12.02;;;;;;;;;;5075176;28;20028;-69
2023/04/28 09:14:38;;;;;;;16.27;11.73;;;;;;;;;;5076152;28;20024;-71
2023/04/28 09:17:11;;;;;;;15.60;12.60;;;;;;;;;;5083425;28;20115;-68
2023/04/28 09:19:38;;;;;;;13.30;11.57;;;;;;;;;;5094218;28;20020;-69
2023/04/28 09:22:05;;;;;;;15.63;10.90;;;;;;;;;;5094746;28;20473;-70
2023/04/28 09:24:32;;;;;;;12.80;11.48;;;;;;;;;;5094832;28;20024;-70
2023/04/28 09:27:01;;;;;;;18.15;13.35;;;;;;;;;;5094753;28;20035;-73
2023/04/28 09:29:28;;;;;;;22.58;15.55;;;;;;;;;;5094893;28;20028;-69
2023/04/28 09:31:55;;;;;;;18.40;15.15;;;;;;;;;;5095094;28;20059;-70
2023/04/28 09:34:21;;;;;;;23.65;16.75;;;;;;;;;;5095245;28;20456;-69
2023/04/28 09:36:48;;;;;;;24.85;17.67;;;;;;;;;;5094721;28;20016;-71
2023/04/28 09:39:15;;;;;;;23.15;14.10;;;;;;;;;;5094766;28;20031;-71
2023/04/28 09:41:42;;;;;;;18.13;14.23;;;;;;;;;;5094864;28;20032;-70
2023/04/28 09:44:13;;;;;;;15.45;12.65;;;;;;;;;;5094606;28;20102;-71
2023/04/28 09:46:40;;;;;;;14.73;12.25;;;;;;;;;;5078320;28;20033;-71
2023/04/28 09:49:08;;;;;;;19.75;12.80;;;;;;;;;;5074127;28;20021;-71
2023/04/28 09:51:35;;;;;;;28.42;18.92;;;;;;;;;;5073756;28;20029;-73
2023/04/28 09:54:02;;;;;;;23.13;18.15;;;;;;;;;;5074279;28;20031;-73
2023/04/28 09:56:29;;;;;;;21.60;15.82;;;;;;;;;;5074299;28;20501;-71
2023/04/28 09:58:59;;;;;;;23.10;16.20;;;;;;;;;;5074066;28;20021;-72
2023/04/28 10:01:32;;;;;;;23.48;15.25;;;;;;;;;;5074458;28;20430;-72
2023/04/28 10:04:01;;;;;;;16.40;14.48;;;;;;;;;;5074088;28;20443;-72
2023/04/28 10:06:29;;;;;;;22.85;14.73;;;;;;;;;;5073861;28;20032;-70
2023/04/28 10:08:57;;;;;;;19.13;15.65;;;;;;;;;;5074025;28;20024;-70
2023/04/28 10:11:24;;;;;;;20.95;15.52;;;;;;;;;;5073840;28;20024;-71
2023/04/28 10:13:52;;;;;;;22.50;15.45;;;;;;;;;;5073904;28;20486;-71
2023/04/28 10:16:19;;;;;;;21.75;15.95;;;;;;;;;;5073948;28;20064;-70
2023/04/28 10:18:46;;;;;;;25.83;16.90;;;;;;;;;;5078310;28;20020;-70
2023/04/28 10:21:17;;;;;;;37.70;23.08;;;;;;;;;;5094083;28;20028;-70
2023/04/28 10:23:53;;;;;;;36.78;23.98;;;;;;;;;;5094301;28;20022;-70
2023/04/28 10:26:22;;;;;;;29.85;21.35;;;;;;;;;;5093660;28;20028;-69
2023/04/28 10:28:49;;;;;;;38.72;22.63;;;;;;;;;;5094010;28;20016;-70
2023/04/28 10:31:20;;;;;;;37.88;24.00;;;;;;;;;;5093809;28;20534;-67
2023/04/28 10:33:47;;;;;;;37.03;23.40;;;;;;;;;;5093945;28;20127;-70
2023/04/28 10:36:34;;;;;;;38.90;25.90;;;;;;;;;;5093769;28;20030;-70
2023/04/28 10:39:10;;;;;;;43.58;25.98;;;;;;;;;;5093545;28;20030;-70
2023/04/28 10:41:36;;;;;;;45.08;28.45;;;;;;;;;;5093834;28;20020;-69
2023/04/28 10:44:22;;;;;;;44.85;27.60;;;;;;;;;;5093545;28;20015;-70
2023/04/28 10:47:09;;;;;;;46.63;29.20;;;;;;;;;;5093547;28;20028;-70
2023/04/28 10:49:56;;;;;;;46.97;25.73;;;;;;;;;;5093669;28;20059;-70
2023/04/28 10:52:43;;;;;;;44.85;26.08;;;;;;;;;;5093565;28;20016;-69
2023/04/28 10:55:32;;;;;;;55.33;31.85;;;;;;;;;;5093292;28;20031;-71
2023/04/28 10:58:18;;;;;;;65.82;37.28;;;;;;;;;;5093688;28;20031;-70
2023/04/28 11:00:47;;;;;;;54.92;34.72;;;;;;;;;;5093346;28;20099;-70
2023/04/28 11:03:33;;;;;;;39.55;25.63;;;;;;;;;;5093450;28;20020;-72
2023/04/28 11:06:22;;;;;;;40.70;22.73;;;;;;;;;;5093232;28;20036;-72
2023/04/28 11:08:49;;;;;;;34.60;21.30;;;;;;;;;;5093462;28;20526;-72
2023/04/28 11:11:17;;;;;;;25.90;19.27;;;;;;;;;;5093386;28;20020;-71
2023/04/28 11:13:45;;;;;;;27.05;18.10;;;;;;;;;;5093241;28;20023;-72
2023/04/28 11:16:16;;;;;;;28.10;20.85;;;;;;;;;;5090106;28;20095;-72
2023/04/28 11:18:48;;;;;;;41.63;30.27;;;;;;;;;;5085968;28;20047;-73
2023/04/28 11:21:15;;;;;;;36.08;23.90;;;;;;;;;;5092150;28;20019;-72
2023/04/28 11:23:42;;;;;;;38.33;24.77;;;;;;;;;;5084504;28;20020;-72
2023/04/28 11:26:09;;;;;;;41.95;29.05;;;;;;;;;;5089448;28;20032;-72
2023/04/28 11:28:36;;;;;;;42.65;28.65;;;;;;;;;;5077009;28;20033;-70
2023/04/28 11:31:17;;;;;;;57.35;34.65;;;;;;;;;;5117007;22;20140;-70
2023/04/28 11:33:45;;;;;;;39.78;26.52;;;;;;;;;;5103391;28;20027;-72
2023/04/28 11:36:32;;;;;;;43.75;31.63;;;;;;;;;;5103163;28;20540;-73
2023/04/28 11:38:59;;;;;;;39.17;29.02;;;;;;;;;;5101181;28;20066;-71
2023/04/28 11:41:26;;;;;;;48.33;32.60;;;;;;;;;;5096635;28;20031;-71
2023/04/28 11:43:53;;;;;;;43.15;30.70;;;;;;;;;;5093112;28;20108;-71
2023/04/28 11:46:21;;;;;;;69.65;47.95;;;;;;;;;;5092848;28;20020;-71
2023/04/28 11:48:47;;;;;;;49.70;35.17;;;;;;;;;;5092997;28;20115;-70
2023/04/28 11:51:34;;;;;;;39.00;28.55;;;;;;;;;;5101916;28;20469;-71
2023/04/28 11:54:01;;;;;;;33.13;23.75;;;;;;;;;;5113479;28;20023;-70
2023/04/28 11:56:28;;;;;;;32.10;22.90;;;;;;;;;;5107164;28;20483;-73
2023/04/28 11:59:15;;;;;;;39.55;29.30;;;;;;;;;;5105217;28;20031;-69
2023/04/28 12:01:51;;;;;;;62.80;41.08;;;;;;;;;;5103097;28;20020;-71
2023/04/28 12:04:27;;;;;;;51.80;35.92;;;;;;;;;;5101219;28;20039;-71
2023/04/28 12:07:04;;;;;;;43.95;28.52;;;;;;;;;;5095802;28;20035;-72
2023/04/28 12:09:32;;;;;;;45.60;27.63;;;;;;;;;;5092753;28;20108;-72
2023/04/28 12:12:01;;;;;;;50.70;28.73;;;;;;;;;;5092821;28;20024;-71
2023/04/28 12:14:28;;;;;;;50.67;29.67;;;;;;;;;;5099155;28;20030;-75
2023/04/28 12:16:55;;;;;;;44.67;29.20;;;;;;;;;;5102778;28;20089;-73
2023/04/28 12:19:22;;;;;;;45.65;29.35;;;;;;;;;;5103697;28;20030;-71
2023/04/28 12:21:59;;;;;;;44.85;30.65;;;;;;;;;;5107723;28;20476;-70
2023/04/28 12:24:26;;;;;;;61.42;41.42;;;;;;;;;;5105825;28;20030;-70
2023/04/28 12:26:53;;;;;;;54.78;33.30;;;;;;;;;;5103814;28;20016;-70
2023/04/28 12:29:40;;;;;;;74.93;48.63;;;;;;;;;;5096322;28;20062;-70
2023/04/28 12:32:09;;;;;;;169.13;92.40;;;;;;;;;;5095842;28;20036;-71
2023/04/28 12:34:36;;;;;;;460.23;259.20;;;;;;;;;;5094147;28;20016;-71
2023/04/28 12:37:04;;;;;;;336.40;193.35;;;;;;;;;;5094660;28;20099;-71
2023/04/28 12:39:32;;;;;;;236.43;129.65;;;;;;;;;;5095890;28;20020;-71
2023/04/28 12:41:58;;;;;;;468.88;241.95;;;;;;;;;;5094111;28;20051;-71
2023/04/28 12:44:27;;;;;;;299.05;145.52;;;;;;;;;;5098987;28;20023;-71
2023/04/28 12:46:55;;;;;;;263.52;128.20;;;;;;;;;;5116298;28;20089;-69
2023/04/28 12:49:22;;;;;;;115.07;62.42;;;;;;;;;;5115896;28;20098;-70
2023/04/28 12:51:48;;;;;;;105.43;52.90;;;;;;;;;;5116048;28;20024;-70
2023/04/28 12:54:15;;;;;;;88.13;49.15;;;;;;;;;;5116116;28;20015;-71
2023/04/28 12:56:42;;;;;;;111.72;56.60;;;;;;;;;;5115863;28;20049;-71
2023/04/28 12:59:08;;;;;;;145.13;68.72;;;;;;;;;;5115946;28;20114;-74
2023/04/28 13:01:35;;;;;;;125.45;58.50;;;;;;;;;;5115887;28;20026;-73
2023/04/28 13:04:01;;;;;;;267.73;99.38;;;;;;;;;;5115674;27;20387;-70
2023/04/28 13:06:28;;;;;;;362.42;121.80;;;;;;;;;;5115800;28;20051;-71
2023/04/28 13:08:55;;;;;;;299.65;116.95;;;;;;;;;;5115704;28;20030;-71
2023/04/28 13:11:25;;;;;;;282.23;116.53;;;;;;;;;;5115608;28;20040;-71
2023/04/28 13:13:52;;;;;;;156.60;72.25;;;;;;;;;;5100857;28;20036;-71
2023/04/28 13:16:19;;;;;;;98.03;49.95;;;;;;;;;;5095352;28;20061;-71
2023/04/28 13:18:47;;;;;;;122.70;57.13;;;;;;;;;;5094963;28;20089;-70
2023/04/28 13:21:14;;;;;;;109.75;52.95;;;;;;;;;;5094995;28;20491;-70
2023/04/28 13:23:41;;;;;;;91.75;46.72;;;;;;;;;;5095072;28;20028;-71
2023/04/28 13:26:08;;;;;;;73.72;39.60;;;;;;;;;;5095006;28;20047;-70
2023/04/28 13:28:35;;;;;;;99.72;47.20;;;;;;;;;;5095074;28;20078;-69
2023/04/28 13:31:02;;;;;;;99.35;45.17;;;;;;;;;;5094734;28;20054;-70
2023/04/28 13:33:30;;;;;;;80.32;36.92;;;;;;;;;;5094796;28;20023;-71
2023/04/28 13:35:58;;;;;;;47.33;26.45;;;;;;;;;;5094889;28;20362;-70
2023/04/28 13:38:25;;;;;;;36.60;23.77;;;;;;;;;;5094810;28;20020;-71
2023/04/28 13:40:52;;;;;;;38.47;23.95;;;;;;;;;;5094505;28;20103;-70
2023/04/28 13:43:19;;;;;;;36.10;23.88;;;;;;;;;;5097616;28;20024;-69
2023/04/28 13:45:46;;;;;;;38.50;24.25;;;;;;;;;;5103305;28;20023;-69
2023/04/28 13:48:12;;;;;;;46.05;27.88;;;;;;;;;;5104141;28;20026;-70
2023/04/28 13:50:39;;;;;;;53.22;29.15;;;;;;;;;;5102456;28;20102;-70
2023/04/28 13:53:06;;;;;;;51.63;29.63;;;;;;;;;;5103207;28;20019;-75
2023/04/28 13:55:32;;;;;;;47.97;28.67;;;;;;;;;;5103966;28;20028;-75
2023/04/28 13:58:03;;;;;;;44.88;30.45;;;;;;;;;;5102284;28;20488;-72
2023/04/28 14:00:32;;;;;;;55.33;35.17;;;;;;;;;;5102746;28;20039;-72
2023/04/28 14:03:00;;;;;;;52.92;30.60;;;;;;;;;;5101346;28;20476;-75
2023/04/28 14:05:27;;;;;;;42.88;28.05;;;;;;;;;;5096468;28;20028;-76
2023/04/28 14:07:54;;;;;;;52.35;29.13;;;;;;;;;;5092978;28;20067;-76
2023/04/28 14:10:21;;;;;;;46.50;29.42;;;;;;;;;;5094041;28;20020;-76
2023/04/28 14:12:48;;;;;;;52.20;28.65;;;;;;;;;;5094236;28;20047;-73
2023/04/28 14:15:16;;;;;;;42.60;27.92;;;;;;;;;;5094120;28;20016;-73
2023/04/28 14:17:43;;;;;;;53.70;30.30;;;;;;;;;;5093790;28;20028;-73
2023/04/28 14:20:10;;;;;;;49.78;30.23;;;;;;;;;;5094006;28;20050;-73